Time;durP1;ratioP1;P1;durP2;ratioP2;P2;SDS_P1;SDS_P2;PMS_P1;PMS_P2;Temp;Humidity;BMP_temperature;BMP_pressure;BME280_temperature;BME280_humidity;BME280_pressure;Samples;Min_cycle;Max_cycle;Signal;HPM_P1;HPM_P2
2023/07/19 00:06:38;;;;;;;5.17;3.20;;;21.80;66.10;;;;;;21083589;28;20302;-63
2023/07/19 00:16:39;;;;;;;7.70;3.37;;;21.90;66.00;;;;;;21082535;28;20269;-63
2023/07/19 00:26:41;;;;;;;9.63;3.13;;;21.70;67.10;;;;;;21081872;28;20198;-63
2023/07/19 00:36:43;;;;;;;5.13;3.27;;;21.60;67.80;;;;;;21081449;28;20297;-63
2023/07/19 00:46:45;;;;;;;5.67;3.20;;;21.60;68.40;;;;;;21080979;28;20630;-65
2023/07/19 00:56:48;;;;;;;8.07;3.33;;;21.40;68.70;;;;;;21080130;28;20340;-64
2023/07/19 01:06:50;;;;;;;6.33;3.20;;;21.20;69.20;;;;;;21079697;28;20621;-63
2023/07/19 01:16:52;;;;;;;9.73;3.40;;;21.10;70.20;;;;;;21078865;28;20252;-65
2023/07/19 01:26:55;;;;;;;5.93;3.30;;;21.10;70.00;;;;;;21078875;28;20232;-64
2023/07/19 01:37:06;;;;;;;9.23;3.50;;;21.10;70.00;;;;;;21094239;28;20237;-67
2023/07/19 01:47:08;;;;;;;5.23;3.10;;;20.90;71.00;;;;;;21094816;28;20733;-63
2023/07/19 01:57:11;;;;;;;8.07;3.13;;;20.60;72.60;;;;;;21094176;28;20234;-63
2023/07/19 02:07:13;;;;;;;4.70;3.17;;;20.50;73.30;;;;;;21093114;28;20202;-64
2023/07/19 02:17:15;;;;;;;5.40;2.90;;;20.40;72.80;;;;;;21092159;28;20288;-63
2023/07/19 02:27:17;;;;;;;9.07;3.13;;;20.50;72.60;;;;;;21092024;28;20223;-63
2023/07/19 02:37:19;;;;;;;6.83;3.47;;;20.30;73.20;;;;;;21090760;28;20705;-64
2023/07/19 02:47:20;;;;;;;8.73;3.83;;;20.10;74.50;;;;;;21088970;28;20293;-64
2023/07/19 02:57:22;;;;;;;6.30;3.10;;;20.00;75.40;;;;;;21089533;28;20241;-64
2023/07/19 03:07:24;;;;;;;4.40;3.43;;;20.00;76.10;;;;;;21088536;28;20217;-64
2023/07/19 03:17:26;;;;;;;8.07;3.40;;;19.80;76.70;;;;;;21096377;28;20251;-63
2023/07/19 03:27:27;;;;;;;9.67;3.43;;;19.60;77.60;;;;;;21112111;28;20315;-64
2023/07/19 03:37:29;;;;;;;12.23;4.23;;;19.40;78.80;;;;;;21085946;28;20329;-62
2023/07/19 03:47:31;;;;;;;9.63;6.70;;;19.30;79.70;;;;;;21087578;28;20297;-65
2023/07/19 03:57:33;;;;;;;6.60;3.50;;;19.20;80.70;;;;;;21103696;28;20236;-68
2023/07/19 04:07:34;;;;;;;8.57;4.07;;;19.10;81.40;;;;;;21083816;28;20212;-64
2023/07/19 04:17:36;;;;;;;5.97;3.30;;;19.20;81.80;;;;;;21082718;28;20241;-64
2023/07/19 04:27:38;;;;;;;8.60;3.73;;;19.40;81.80;;;;;;21082473;28;20538;-67
2023/07/19 04:37:41;;;;;;;5.47;3.43;;;19.40;81.90;;;;;;21081289;28;20247;-66
2023/07/19 04:47:42;;;;;;;12.23;4.10;;;19.30;82.30;;;;;;21080628;28;20209;-64
2023/07/19 04:57:44;;;;;;;8.10;3.67;;;19.40;82.70;;;;;;21072460;28;20347;-68
2023/07/19 05:07:47;;;;;;;10.97;4.13;;;19.50;82.60;;;;;;21036643;28;20652;-65
2023/07/19 05:17:51;;;;;;;14.07;4.17;;;19.60;82.70;;;;;;21035974;28;20241;-63
2023/07/19 05:27:54;;;;;;;11.57;4.20;;;19.90;82.20;;;;;;21076072;28;20612;-64
2023/07/19 05:37:56;;;;;;;19.60;5.90;;;19.90;82.10;;;;;;21134315;28;20228;-63
2023/07/19 05:48:01;;;;;;;19.80;4.57;;;20.00;82.10;;;;;;21126770;28;20683;-65
2023/07/19 05:58:03;;;;;;;17.43;4.60;;;20.40;81.70;;;;;;21159955;28;20280;-64
2023/07/19 06:08:04;;;;;;;8.60;3.90;;;20.60;80.90;;;;;;21121217;28;20298;-64
2023/07/19 06:18:23;;;;;;;13.37;4.20;;;20.90;79.90;;;;;;21081903;28;20712;-67
2023/07/19 06:28:25;;;;;;;14.33;4.10;;;21.20;79.10;;;;;;21091349;28;20289;-68
2023/07/19 06:38:27;;;;;;;22.37;4.00;;;21.50;77.80;;;;;;21091969;28;20280;-66
2023/07/19 06:48:29;;;;;;;8.70;4.80;;;21.60;76.00;;;;;;21098578;28;20305;-68
2023/07/19 06:58:31;;;;;;;5.77;3.60;;;21.90;73.40;;;;;;21100133;28;20321;-66
2023/07/19 07:08:33;;;;;;;8.27;3.70;;;22.10;71.40;;;;;;21087853;28;20713;-65
2023/07/19 07:18:35;;;;;;;9.97;3.60;;;22.40;70.40;;;;;;21086464;28;20234;-66
2023/07/19 07:28:37;;;;;;;7.33;3.63;;;22.70;69.80;;;;;;21085850;28;20234;-67
2023/07/19 07:38:38;;;;;;;7.83;4.77;;;23.00;69.20;;;;;;21085238;28;20776;-66
2023/07/19 07:48:41;;;;;;;5.73;3.30;;;23.40;67.80;;;;;;21099769;28;20618;-66
2023/07/19 07:58:43;;;;;;;5.03;2.87;;;23.60;65.60;;;;;;21091677;28;20575;-66
2023/07/19 08:08:44;;;;;;;7.80;3.50;;;23.80;64.40;;;;;;21083456;28;20281;-67
2023/07/19 08:18:46;;;;;;;7.47;3.20;;;24.00;63.60;;;;;;21082182;28;20242;-66
2023/07/19 08:28:48;;;;;;;8.70;3.30;;;24.20;62.70;;;;;;21082239;28;20237;-67
2023/07/19 08:38:50;;;;;;;5.30;3.50;;;24.50;61.90;;;;;;21091252;28;20656;-67
2023/07/19 08:48:52;;;;;;;4.37;3.20;;;24.70;60.60;;;;;;21079989;28;20199;-67
2023/07/19 08:58:54;;;;;;;5.93;3.23;;;24.90;59.60;;;;;;21091148;28;20325;-68
2023/07/19 09:08:56;;;;;;;8.40;3.50;;;25.10;58.30;;;;;;21078729;28;20293;-68
2023/07/19 09:19:00;;;;;;;6.80;3.67;;;25.40;57.10;;;;;;21077997;28;20238;-68
2023/07/19 09:29:02;;;;;;;14.27;3.53;;;25.60;55.00;;;;;;21089351;28;20203;-68
2023/07/19 09:39:04;;;;;;;7.73;3.90;;;25.80;54.50;;;;;;21077527;28;20281;-68
2023/07/19 09:49:06;;;;;;;8.87;2.80;;;25.90;52.50;;;;;;21077761;28;20301;-70
2023/07/19 09:59:17;;;;;;;8.03;3.10;;;26.10;51.90;;;;;;21105377;28;20230;-67
2023/07/19 10:09:21;;;;;;;6.97;2.80;;;26.30;49.90;;;;;;21093080;28;20206;-68
2023/07/19 10:19:23;;;;;;;3.60;2.23;;;26.60;48.40;;;;;;21092041;28;20278;-68
2023/07/19 10:29:25;;;;;;;5.25;2.15;;;26.80;47.50;;;;;;21092671;28;20286;-69
2023/07/19 10:39:27;;;;;;;5.27;2.20;;;26.90;47.30;;;;;;21111705;28;20634;-68
2023/07/19 10:49:29;;;;;;;2.03;1.83;;;27.10;45.00;;;;;;21089231;28;20681;-68
2023/07/19 10:59:31;;;;;;;6.70;2.30;;;27.20;44.50;;;;;;21088516;28;20230;-67
2023/07/19 11:09:33;;;;;;;6.43;2.67;;;27.40;44.30;;;;;;21087002;28;20289;-69
2023/07/19 11:19:37;;;;;;;3.72;2.10;;;27.80;43.90;;;;;;21086963;28;20253;-69
2023/07/19 11:29:39;;;;;;;4.10;2.30;;;28.00;43.20;;;;;;21086765;28;20630;-68
2023/07/19 11:39:41;;;;;;;4.43;2.28;;;28.10;42.60;;;;;;21097547;28;20280;-68
2023/07/19 11:49:42;;;;;;;5.85;2.60;;;28.40;41.90;;;;;;21093203;28;20713;-68
2023/07/19 11:59:44;;;;;;;5.70;2.60;;;28.60;41.90;;;;;;21082078;28;20227;-68
2023/07/19 12:09:46;;;;;;;6.05;2.30;;;28.80;41.80;;;;;;21082747;28;20205;-69
2023/07/19 12:19:47;;;;;;;6.07;2.67;;;28.50;41.70;;;;;;21090649;28;20266;-70
2023/07/19 12:29:49;;;;;;;4.22;2.60;;;28.40;41.50;;;;;;21081359;28;20684;-66
2023/07/19 12:40:05;;;;;;;3.53;2.15;;;28.30;41.90;;;;;;21080564;28;20237;-72
2023/07/19 12:50:07;;;;;;;13.48;3.80;;;28.60;41.90;;;;;;21090982;28;20202;-67
2023/07/19 13:00:13;;;;;;;6.10;2.60;;;28.60;41.90;;;;;;21079230;28;20234;-67
2023/07/19 13:10:15;;;;;;;14.70;2.70;;;28.40;42.20;;;;;;21079168;28;20658;-68
2023/07/19 13:20:17;;;;;;;7.20;2.83;;;28.20;42.50;;;;;;21089538;28;20238;-69
2023/07/19 13:30:18;;;;;;;5.83;2.50;;;27.90;43.50;;;;;;21089320;28;20247;-65
2023/07/19 13:40:25;;;;;;;8.87;2.73;;;27.40;44.50;;;;;;21078258;28;20757;-67
2023/07/19 13:50:27;;;;;;;6.07;2.63;;;27.10;46.80;;;;;;21077724;28;20203;-66
2023/07/19 14:00:29;;;;;;;3.83;2.40;;;26.70;51.50;;;;;;21076939;28;20244;-67
2023/07/19 14:10:32;;;;;;;4.17;3.17;;;26.70;56.00;;;;;;21077093;28;20289;-65
2023/07/19 14:20:33;;;;;;;7.97;2.80;;;26.50;59.30;;;;;;21076217;28;20654;-66
2023/07/19 14:30:35;;;;;;;4.73;2.63;;;26.30;61.10;;;;;;21098334;28;20244;-65
2023/07/19 14:40:37;;;;;;;4.40;2.37;;;26.50;60.80;;;;;;21082799;28;20230;-64
2023/07/19 14:50:39;;;;;;;4.03;2.30;;;26.80;59.60;;;;;;21089345;28;20290;-64
2023/07/19 15:00:40;;;;;;;4.27;2.50;;;26.40;59.80;;;;;;21088577;28;20241;-64
2023/07/19 15:10:42;;;;;;;4.50;2.20;;;26.10;59.80;;;;;;21099628;28;20281;-65
2023/07/19 15:20:45;;;;;;;5.20;2.57;;;25.70;60.90;;;;;;21087074;28;20249;-65
2023/07/19 15:30:49;;;;;;;4.67;2.97;;;25.40;65.70;;;;;;21086832;28;20672;-64
2023/07/19 15:40:52;;;;;;;5.90;3.43;;;23.20;76.70;;;;;;21097705;28;20379;-65
2023/07/19 15:50:54;;;;;;;7.87;3.47;;;23.00;82.40;;;;;;21085101;28;20209;-68
2023/07/19 16:00:56;;;;;;;5.03;3.37;;;22.70;87.20;;;;;;21084404;28;20246;-66
2023/07/19 16:10:58;;;;;;;5.40;3.00;;;22.90;90.20;;;;;;21095169;28;20203;-69
2023/07/19 16:21:00;;;;;;;8.37;3.63;;;23.00;91.60;;;;;;21093774;28;20325;-68
2023/07/19 16:31:02;;;;;;;6.00;3.20;;;23.40;92.30;;;;;;21081773;28;20214;-64
2023/07/19 16:41:04;;;;;;;4.63;3.30;;;23.50;92.90;;;;;;21081150;28;20659;-66
2023/07/19 16:51:05;;;;;;;6.37;3.13;;;23.70;92.80;;;;;;21087918;28;20244;-66
2023/07/19 17:01:09;;;;;;;7.67;4.00;;;23.50;92.90;;;;;;21078316;28;20329;-66
2023/07/19 17:11:13;;;;;;;8.60;4.57;;;23.50;93.10;;;;;;21078274;28;20207;-66
2023/07/19 17:21:16;;;;;;;7.77;4.20;;;23.30;93.90;;;;;;21088506;28;20870;-69
2023/07/19 17:31:18;;;;;;;7.70;5.13;;;23.20;94.20;;;;;;21059891;28;20218;-68
2023/07/19 17:41:20;;;;;;;4.63;2.90;;;23.10;94.20;;;;;;21077112;28;20234;-66
2023/07/19 17:51:22;;;;;;;6.20;3.00;;;22.80;94.00;;;;;;21079110;28;20207;-69
2023/07/19 18:01:24;;;;;;;6.57;4.13;;;22.70;94.10;;;;;;21084149;28;20242;-69
2023/07/19 18:11:26;;;;;;;6.53;3.60;;;22.60;94.80;;;;;;21087099;28;20234;-66
2023/07/19 18:21:28;;;;;;;5.43;3.07;;;22.50;95.40;;;;;;21090101;28;20226;-69
2023/07/19 18:31:30;;;;;;;6.13;3.30;;;22.40;95.70;;;;;;21072335;28;20244;-66
2023/07/19 18:41:31;;;;;;;5.63;3.00;;;22.40;96.10;;;;;;21090139;28;20237;-67
2023/07/19 18:51:33;;;;;;;5.00;3.13;;;22.30;96.50;;;;;;21088229;28;20293;-67
2023/07/19 19:01:35;;;;;;;5.33;2.90;;;22.30;96.60;;;;;;21102606;28;20333;-66
2023/07/19 19:11:37;;;;;;;6.37;3.07;;;22.10;96.40;;;;;;21095095;28;20261;-68
2023/07/19 19:21:39;;;;;;;6.53;3.20;;;22.00;96.50;;;;;;21086782;28;20274;-69
2023/07/19 19:31:41;;;;;;;8.23;3.40;;;21.90;96.50;;;;;;21086049;28;20615;-67
2023/07/19 19:41:43;;;;;;;4.30;3.03;;;21.80;96.90;;;;;;21088314;28;20590;-67
2023/07/19 19:51:45;;;;;;;5.40;3.03;;;21.90;97.20;;;;;;21093746;28;20262;-63
2023/07/19 20:01:46;;;;;;;7.40;3.60;;;21.70;97.60;;;;;;21084375;28;20588;-67
2023/07/19 20:11:48;;;;;;;9.93;3.60;;;21.80;98.00;;;;;;21094900;28;20234;-67
2023/07/19 20:21:50;;;;;;;9.60;3.60;;;21.70;98.80;;;;;;21082540;28;20329;-67
2023/07/19 20:31:52;;;;;;;5.47;3.33;;;21.60;99.10;;;;;;21082379;28;20571;-66
2023/07/19 20:41:56;;;;;;;7.73;3.23;;;21.60;99.60;;;;;;21092206;28;20280;-65
2023/07/19 20:51:58;;;;;;;6.60;3.73;;;21.50;99.80;;;;;;21080604;28;20637;-63
2023/07/19 21:02:00;;;;;;;11.50;3.83;;;21.50;99.90;;;;;;21062313;28;20764;-66
2023/07/19 21:12:02;;;;;;;14.90;4.20;;;21.40;99.90;;;;;;21090996;28;20339;-62
2023/07/19 21:22:04;;;;;;;8.03;4.00;;;21.50;99.90;;;;;;21076487;28;20669;-62
2023/07/19 21:32:06;;;;;;;6.50;4.03;;;21.40;99.90;;;;;;21078697;28;20216;-62
2023/07/19 21:42:08;;;;;;;9.67;4.20;;;21.30;99.90;;;;;;21078718;28;20740;-63
2023/07/19 21:52:10;;;;;;;5.50;3.80;;;21.30;99.90;;;;;;21101486;28;20220;-63
2023/07/19 22:02:12;;;;;;;5.47;3.93;;;21.20;99.90;;;;;;21094402;28;20272;-63
2023/07/19 22:12:14;;;;;;;10.40;4.17;;;21.20;99.90;;;;;;21104982;28;20237;-62
2023/07/19 22:22:16;;;;;;;8.57;3.90;;;21.10;99.90;;;;;;21092651;28;20670;-62
2023/07/19 22:32:18;;;;;;;9.33;4.17;;;21.00;99.90;;;;;;21091808;28;20203;-62
2023/07/19 22:42:19;;;;;;;9.77;4.10;;;21.00;99.90;;;;;;21091353;28;20329;-62
2023/07/19 22:52:24;;;;;;;7.87;4.20;;;20.90;99.90;;;;;;21103842;28;20202;-62
2023/07/19 23:02:26;;;;;;;11.43;4.20;;;20.90;99.90;;;;;;21097761;28;20281;-62
2023/07/19 23:12:29;;;;;;;10.13;4.10;;;20.90;99.90;;;;;;21089076;28;20242;-62
2023/07/19 23:22:31;;;;;;;8.97;4.40;;;20.90;99.90;;;;;;21087834;28;20240;-62
2023/07/19 23:32:33;;;;;;;6.53;4.23;;;20.90;99.90;;;;;;21087391;28;20565;-62
2023/07/19 23:42:34;;;;;;;11.50;4.50;;;20.90;99.90;;;;;;21093842;28;20237;-62
2023/07/19 23:52:37;;;;;;;10.63;4.50;;;20.90;99.90;;;;;;21089225;28;20253;-62
